sensor_id;sensor_type;location;lat;lon;timestamp;pressure;altitude;pressure_sealevel;temperature;humidity
54948;BME280;41113;41.882;12.530;2023-03-04T00:01:13;100848.66;;;7.60;84.65
54948;BME280;41113;41.882;12.530;2023-03-04T00:03:40;100844.41;;;7.58;84.97
54948;BME280;41113;41.882;12.530;2023-03-04T00:06:05;100847.19;;;7.56;84.81
54948;BME280;41113;41.882;12.530;2023-03-04T00:08:31;100853.75;;;7.52;84.69
54948;BME280;41113;41.882;12.530;2023-03-04T00:10:56;100850.53;;;7.47;85.21
54948;BME280;41113;41.882;12.530;2023-03-04T00:13:22;100850.53;;;7.47;84.95
54948;BME280;41113;41.882;12.530;2023-03-04T00:15:48;100857.28;;;7.40;84.88
54948;BME280;41113;41.882;12.530;2023-03-04T00:18:13;100854.22;;;7.33;85.39
54948;BME280;41113;41.882;12.530;2023-03-04T00:20:39;100855.50;;;7.28;85.27
54948;BME280;41113;41.882;12.530;2023-03-04T00:23:04;100857.22;;;7.29;85.75
54948;BME280;41113;41.882;12.530;2023-03-04T00:25:30;100862.44;;;7.30;84.91
54948;BME280;41113;41.882;12.530;2023-03-04T00:27:55;100857.84;;;7.32;85.67
54948;BME280;41113;41.882;12.530;2023-03-04T00:30:24;100868.44;;;7.34;85.16
54948;BME280;41113;41.882;12.530;2023-03-04T00:32:49;100865.75;;;7.34;85.29
54948;BME280;41113;41.882;12.530;2023-03-04T00:35:15;100866.81;;;7.31;84.73
54948;BME280;41113;41.882;12.530;2023-03-04T00:37:40;100865.97;;;7.31;84.80
54948;BME280;41113;41.882;12.530;2023-03-04T00:40:06;100861.38;;;7.33;84.93
54948;BME280;41113;41.882;12.530;2023-03-04T00:42:32;100858.25;;;7.39;84.52
54948;BME280;41113;41.882;12.530;2023-03-04T00:44:57;100849.28;;;7.40;84.14
54948;BME280;41113;41.882;12.530;2023-03-04T00:47:22;100855.00;;;7.46;84.52
54948;BME280;41113;41.882;12.530;2023-03-04T00:49:48;100855.25;;;7.43;84.68
54948;BME280;41113;41.882;12.530;2023-03-04T00:52:13;100857.75;;;7.34;84.81
54948;BME280;41113;41.882;12.530;2023-03-04T00:54:38;100855.50;;;7.28;85.19
54948;BME280;41113;41.882;12.530;2023-03-04T00:57:04;100851.03;;;7.28;85.30
54948;BME280;41113;41.882;12.530;2023-03-04T00:59:29;100841.41;;;7.26;85.47
54948;BME280;41113;41.882;12.530;2023-03-04T01:01:55;100846.13;;;7.22;85.72
54948;BME280;41113;41.882;12.530;2023-03-04T01:04:20;100843.81;;;7.17;85.75
54948;BME280;41113;41.882;12.530;2023-03-04T01:06:46;100842.63;;;7.22;85.54
54948;BME280;41113;41.882;12.530;2023-03-04T01:09:11;100840.78;;;7.22;85.35
54948;BME280;41113;41.882;12.530;2023-03-04T01:11:36;100839.94;;;7.22;85.56
54948;BME280;41113;41.882;12.530;2023-03-04T01:14:02;100844.09;;;7.26;85.53
54948;BME280;41113;41.882;12.530;2023-03-04T01:16:28;100845.56;;;7.30;85.50
54948;BME280;41113;41.882;12.530;2023-03-04T01:18:53;100843.25;;;7.25;85.31
54948;BME280;41113;41.882;12.530;2023-03-04T01:21:19;100849.44;;;7.26;85.18
54948;BME280;41113;41.882;12.530;2023-03-04T01:23:44;100852.84;;;7.28;84.92
54948;BME280;41113;41.882;12.530;2023-03-04T01:26:10;100851.88;;;7.29;84.22
54948;BME280;41113;41.882;12.530;2023-03-04T01:28:35;100843.41;;;7.35;83.74
54948;BME280;41113;41.882;12.530;2023-03-04T01:31:01;100840.34;;;7.28;83.44
54948;BME280;41113;41.882;12.530;2023-03-04T01:33:27;100836.94;;;7.13;83.33
54948;BME280;41113;41.882;12.530;2023-03-04T01:35:53;100839.09;;;7.08;83.73
54948;BME280;41113;41.882;12.530;2023-03-04T01:38:20;100839.63;;;7.13;84.05
54948;BME280;41113;41.882;12.530;2023-03-04T01:40:45;100835.56;;;7.21;82.94
54948;BME280;41113;41.882;12.530;2023-03-04T01:43:21;100833.13;;;7.17;82.39
54948;BME280;41113;41.882;12.530;2023-03-04T01:45:48;100835.34;;;7.11;82.69
54948;BME280;41113;41.882;12.530;2023-03-04T01:48:15;100829.16;;;7.10;82.95
54948;BME280;41113;41.882;12.530;2023-03-04T01:50:42;100832.56;;;7.12;82.63
54948;BME280;41113;41.882;12.530;2023-03-04T01:53:17;100828.94;;;7.13;82.45
54948;BME280;41113;41.882;12.530;2023-03-04T01:55:44;100828.81;;;7.15;82.46
54948;BME280;41113;41.882;12.530;2023-03-04T01:58:10;100819.44;;;7.09;82.50
54948;BME280;41113;41.882;12.530;2023-03-04T02:00:36;100818.47;;;7.10;82.38
54948;BME280;41113;41.882;12.530;2023-03-04T02:03:09;100814.41;;;7.17;82.06
54948;BME280;41113;41.882;12.530;2023-03-04T02:05:40;100809.59;;;7.10;81.49
54948;BME280;41113;41.882;12.530;2023-03-04T02:08:11;100807.50;;;7.02;81.97
54948;BME280;41113;41.882;12.530;2023-03-04T02:10:38;100809.44;;;7.00;82.03
54948;BME280;41113;41.882;12.530;2023-03-04T02:13:05;100803.41;;;7.09;82.00
54948;BME280;41113;41.882;12.530;2023-03-04T02:15:31;100789.09;;;7.10;81.91
54948;BME280;41113;41.882;12.530;2023-03-04T02:17:56;100791.53;;;7.13;81.74
54948;BME280;41113;41.882;12.530;2023-03-04T02:20:50;100791.22;;;7.18;81.63
54948;BME280;41113;41.882;12.530;2023-03-04T02:23:27;100790.41;;;7.05;81.13
54948;BME280;41113;41.882;12.530;2023-03-04T02:26:14;100778.56;;;6.96;81.86
54948;BME280;41113;41.882;12.530;2023-03-04T02:28:41;100789.72;;;6.90;81.74
54948;BME280;41113;41.882;12.530;2023-03-04T02:33:54;100788.97;;;6.88;82.26
54948;BME280;41113;41.882;12.530;2023-03-04T02:36:21;100782.72;;;7.00;81.87
54948;BME280;41113;41.882;12.530;2023-03-04T02:38:51;100786.44;;;7.10;81.30
54948;BME280;41113;41.882;12.530;2023-03-04T02:41:20;100776.66;;;6.98;81.33
54948;BME280;41113;41.882;12.530;2023-03-04T02:43:48;100781.88;;;7.00;81.42
54948;BME280;41113;41.882;12.530;2023-03-04T02:46:14;100780.41;;;6.96;81.61
54948;BME280;41113;41.882;12.530;2023-03-04T02:48:39;100776.97;;;6.94;81.40
54948;BME280;41113;41.882;12.530;2023-03-04T02:51:05;100772.72;;;6.91;81.33
54948;BME280;41113;41.882;12.530;2023-03-04T02:53:30;100771.97;;;6.89;81.39
54948;BME280;41113;41.882;12.530;2023-03-04T02:55:56;100778.06;;;6.78;81.89
54948;BME280;41113;41.882;12.530;2023-03-04T02:58:21;100776.25;;;6.79;81.92
54948;BME280;41113;41.882;12.530;2023-03-04T03:00:46;100780.09;;;6.75;82.13
54948;BME280;41113;41.882;12.530;2023-03-04T03:03:12;100773.81;;;6.76;82.62
54948;BME280;41113;41.882;12.530;2023-03-04T03:05:38;100778.84;;;6.68;82.59
54948;BME280;41113;41.882;12.530;2023-03-04T03:08:04;100768.84;;;6.59;82.66
54948;BME280;41113;41.882;12.530;2023-03-04T03:10:30;100778.88;;;6.55;83.22
54948;BME280;41113;41.882;12.530;2023-03-04T03:12:55;100780.91;;;6.51;83.32
54948;BME280;41113;41.882;12.530;2023-03-04T03:15:21;100780.47;;;6.58;83.28
54948;BME280;41113;41.882;12.530;2023-03-04T03:17:46;100782.63;;;6.52;83.10
54948;BME280;41113;41.882;12.530;2023-03-04T03:20:12;100781.75;;;6.52;83.37
54948;BME280;41113;41.882;12.530;2023-03-04T03:22:39;100775.13;;;6.58;83.33
54948;BME280;41113;41.882;12.530;2023-03-04T03:25:05;100791.38;;;6.54;83.47
54948;BME280;41113;41.882;12.530;2023-03-04T03:27:31;100785.59;;;6.61;83.53
54948;BME280;41113;41.882;12.530;2023-03-04T03:29:56;100786.25;;;6.51;83.44
54948;BME280;41113;41.882;12.530;2023-03-04T03:32:22;100787.22;;;6.50;82.94
54948;BME280;41113;41.882;12.530;2023-03-04T03:34:47;100784.09;;;6.57;83.19
54948;BME280;41113;41.882;12.530;2023-03-04T03:37:15;100787.50;;;6.59;82.66
54948;BME280;41113;41.882;12.530;2023-03-04T03:39:40;100783.47;;;6.53;82.62
54948;BME280;41113;41.882;12.530;2023-03-04T03:42:06;100787.00;;;6.53;82.65
54948;BME280;41113;41.882;12.530;2023-03-04T03:44:31;100784.53;;;6.50;82.24
54948;BME280;41113;41.882;12.530;2023-03-04T03:46:57;100781.94;;;6.49;82.68
54948;BME280;41113;41.882;12.530;2023-03-04T03:49:22;100781.31;;;6.45;82.81
54948;BME280;41113;41.882;12.530;2023-03-04T03:51:48;100781.09;;;6.48;82.79
54948;BME280;41113;41.882;12.530;2023-03-04T03:54:14;100781.31;;;6.45;82.73
54948;BME280;41113;41.882;12.530;2023-03-04T03:56:40;100771.72;;;6.43;82.63
54948;BME280;41113;41.882;12.530;2023-03-04T03:59:05;100775.75;;;6.48;82.07
54948;BME280;41113;41.882;12.530;2023-03-04T04:01:32;100783.44;;;6.40;82.23
54948;BME280;41113;41.882;12.530;2023-03-04T04:03:58;100783.00;;;6.46;82.34
54948;BME280;41113;41.882;12.530;2023-03-04T04:06:24;100782.63;;;6.52;82.26
54948;BME280;41113;41.882;12.530;2023-03-04T04:08:49;100782.41;;;6.55;82.26
54948;BME280;41113;41.882;12.530;2023-03-04T04:11:16;100778.97;;;6.53;81.99
54948;BME280;41113;41.882;12.530;2023-03-04T04:13:42;100779.19;;;6.63;82.13
54948;BME280;41113;41.882;12.530;2023-03-04T04:16:08;100775.44;;;6.66;81.62
54948;BME280;41113;41.882;12.530;2023-03-04T04:18:34;100777.69;;;6.59;82.14
54948;BME280;41113;41.882;12.530;2023-03-04T04:20:59;100772.78;;;6.53;82.67
54948;BME280;41113;41.882;12.530;2023-03-04T04:23:25;100775.13;;;6.45;82.62
54948;BME280;41113;41.882;12.530;2023-03-04T04:25:54;100780.69;;;6.42;82.68
54948;BME280;41113;41.882;12.530;2023-03-04T04:28:19;100772.16;;;6.37;83.14
54948;BME280;41113;41.882;12.530;2023-03-04T04:30:44;100777.59;;;6.35;83.11
54948;BME280;41113;41.882;12.530;2023-03-04T04:33:10;100779.28;;;6.36;83.08
54948;BME280;41113;41.882;12.530;2023-03-04T04:35:35;100774.50;;;6.29;82.79
54948;BME280;41113;41.882;12.530;2023-03-04T04:38:03;100783.47;;;6.28;83.65
54948;BME280;41113;41.882;12.530;2023-03-04T04:40:29;100789.00;;;6.37;83.10
54948;BME280;41113;41.882;12.530;2023-03-04T04:42:55;100794.56;;;6.34;82.96
54948;BME280;41113;41.882;12.530;2023-03-04T04:45:21;100792.53;;;6.25;83.28
54948;BME280;41113;41.882;12.530;2023-03-04T04:47:49;100794.03;;;6.29;83.10
54948;BME280;41113;41.882;12.530;2023-03-04T04:50:15;100791.56;;;6.26;83.21
54948;BME280;41113;41.882;12.530;2023-03-04T04:52:40;100787.72;;;6.30;82.77
54948;BME280;41113;41.882;12.530;2023-03-04T04:55:06;100787.50;;;6.33;82.88
54948;BME280;41113;41.882;12.530;2023-03-04T04:57:32;100784.53;;;6.25;82.78
54948;BME280;41113;41.882;12.530;2023-03-04T04:59:57;100779.91;;;6.14;83.79
54948;BME280;41113;41.882;12.530;2023-03-04T05:02:23;100779.91;;;6.14;84.01
54948;BME280;41113;41.882;12.530;2023-03-04T05:04:48;100782.38;;;6.17;83.78
54948;BME280;41113;41.882;12.530;2023-03-04T05:07:13;100787.72;;;6.17;83.79
54948;BME280;41113;41.882;12.530;2023-03-04T05:09:39;100784.00;;;6.20;83.63
54948;BME280;41113;41.882;12.530;2023-03-04T05:12:04;100791.25;;;6.18;83.69
54948;BME280;41113;41.882;12.530;2023-03-04T05:14:30;100796.03;;;6.13;83.74
54948;BME280;41113;41.882;12.530;2023-03-04T05:16:55;100787.72;;;6.05;84.75
54948;BME280;41113;41.882;12.530;2023-03-04T05:19:20;100792.59;;;5.98;84.56
54948;BME280;41113;41.882;12.530;2023-03-04T05:21:46;100788.34;;;5.96;84.96
54948;BME280;41113;41.882;12.530;2023-03-04T05:24:11;100783.22;;;5.92;84.91
54948;BME280;41113;41.882;12.530;2023-03-04T05:26:37;100786.84;;;5.91;84.90
54948;BME280;41113;41.882;12.530;2023-03-04T05:29:03;100782.66;;;5.87;85.25
54948;BME280;41113;41.882;12.530;2023-03-04T05:31:28;100791.44;;;5.89;85.52
54948;BME280;41113;41.882;12.530;2023-03-04T05:33:53;100788.56;;;5.92;84.87
54948;BME280;41113;41.882;12.530;2023-03-04T05:36:19;100788.75;;;5.89;84.99
54948;BME280;41113;41.882;12.530;2023-03-04T05:38:45;100790.47;;;5.90;85.15
54948;BME280;41113;41.882;12.530;2023-03-04T05:41:10;100794.84;;;5.91;84.86
54948;BME280;41113;41.882;12.530;2023-03-04T05:43:36;100797.69;;;5.88;85.08
54948;BME280;41113;41.882;12.530;2023-03-04T05:46:03;100793.88;;;5.92;84.88
54948;BME280;41113;41.882;12.530;2023-03-04T05:48:28;100798.47;;;5.90;84.85
54948;BME280;41113;41.882;12.530;2023-03-04T05:50:59;100801.13;;;5.90;85.10
54948;BME280;41113;41.882;12.530;2023-03-04T05:53:24;100804.53;;;5.92;85.12
54948;BME280;41113;41.882;12.530;2023-03-04T05:55:50;100801.13;;;5.90;85.07
54948;BME280;41113;41.882;12.530;2023-03-04T05:58:16;100811.97;;;5.87;85.02
54948;BME280;41113;41.882;12.530;2023-03-04T06:00:42;100808.34;;;5.88;84.97
54948;BME280;41113;41.882;12.530;2023-03-04T06:03:20;100813.28;;;5.95;85.06
54948;BME280;41113;41.882;12.530;2023-03-04T06:05:46;100818.63;;;5.95;84.70
54948;BME280;41113;41.882;12.530;2023-03-04T06:08:12;100820.88;;;6.01;84.77
54948;BME280;41113;41.882;12.530;2023-03-04T06:10:39;100821.06;;;5.98;84.12
54948;BME280;41113;41.882;12.530;2023-03-04T06:13:05;100823.00;;;5.96;84.35
54948;BME280;41113;41.882;12.530;2023-03-04T06:15:30;100819.00;;;5.88;84.69
54948;BME280;41113;41.882;12.530;2023-03-04T06:17:56;100823.47;;;5.88;85.07
54948;BME280;41113;41.882;12.530;2023-03-04T06:20:21;100828.66;;;6.04;84.50
54948;BME280;41113;41.882;12.530;2023-03-04T06:22:47;100823.13;;;6.07;84.23
54948;BME280;41113;41.882;12.530;2023-03-04T06:25:12;100834.41;;;6.10;84.02
54948;BME280;41113;41.882;12.530;2023-03-04T06:27:38;100831.84;;;6.09;84.17
54948;BME280;41113;41.882;12.530;2023-03-04T06:30:06;100832.72;;;6.09;84.01
54948;BME280;41113;41.882;12.530;2023-03-04T06:32:32;100828.44;;;6.07;84.28
54948;BME280;41113;41.882;12.530;2023-03-04T06:34:57;100843.81;;;6.16;83.99
54948;BME280;41113;41.882;12.530;2023-03-04T06:37:22;100838.19;;;6.20;83.84
54948;BME280;41113;41.882;12.530;2023-03-04T06:39:48;100843.00;;;6.28;83.12
54948;BME280;41113;41.882;12.530;2023-03-04T06:42:14;100845.56;;;6.30;83.34
54948;BME280;41113;41.882;12.530;2023-03-04T06:45:02;100848.97;;;6.44;83.12
54948;BME280;41113;41.882;12.530;2023-03-04T06:47:53;100850.03;;;6.42;82.58
54948;BME280;41113;41.882;12.530;2023-03-04T06:50:21;100856.22;;;6.42;82.29
54948;BME280;41113;41.882;12.530;2023-03-04T06:52:47;100870.09;;;6.47;82.61
54948;BME280;41113;41.882;12.530;2023-03-04T06:55:15;100870.41;;;6.43;82.60
54948;BME280;41113;41.882;12.530;2023-03-04T06:57:41;100873.50;;;6.49;82.14
54948;BME280;41113;41.882;12.530;2023-03-04T07:00:09;100877.13;;;6.48;82.30
54948;BME280;41113;41.882;12.530;2023-03-04T07:02:34;100876.09;;;6.89;81.35
54948;BME280;41113;41.882;12.530;2023-03-04T07:05:00;100878.34;;;6.95;80.53
54948;BME280;41113;41.882;12.530;2023-03-04T07:07:27;100866.47;;;6.74;80.41
54948;BME280;41113;41.882;12.530;2023-03-04T07:09:54;100875.25;;;6.89;81.09
54948;BME280;41113;41.882;12.530;2023-03-04T07:12:19;100879.94;;;6.98;80.38
54948;BME280;41113;41.882;12.530;2023-03-04T07:14:45;100877.66;;;7.04;80.23
54948;BME280;41113;41.882;12.530;2023-03-04T07:17:10;100878.19;;;7.22;79.90
54948;BME280;41113;41.882;12.530;2023-03-04T07:19:36;100874.56;;;7.23;79.46
54948;BME280;41113;41.882;12.530;2023-03-04T07:22:04;100876.69;;;7.18;79.22
54948;BME280;41113;41.882;12.530;2023-03-04T07:24:29;100871.47;;;7.16;79.55
54948;BME280;41113;41.882;12.530;2023-03-04T07:26:54;100870.34;;;7.32;78.96
54948;BME280;41113;41.882;12.530;2023-03-04T07:29:21;100877.69;;;7.41;78.52
54948;BME280;41113;41.882;12.530;2023-03-04T07:31:47;100880.47;;;7.52;78.04
54948;BME280;41113;41.882;12.530;2023-03-04T07:34:13;100882.28;;;7.52;77.80
54948;BME280;41113;41.882;12.530;2023-03-04T07:36:41;100882.97;;;7.66;78.10
54948;BME280;41113;41.882;12.530;2023-03-04T07:39:07;100882.28;;;7.75;76.98
54948;BME280;41113;41.882;12.530;2023-03-04T07:41:33;100884.94;;;7.75;76.92
54948;BME280;41113;41.882;12.530;2023-03-04T07:44:04;100890.16;;;7.90;76.90
54948;BME280;41113;41.882;12.530;2023-03-04T07:46:30;100886.50;;;7.91;76.48
54948;BME280;41113;41.882;12.530;2023-03-04T07:48:55;100887.69;;;7.87;76.16
54948;BME280;41113;41.882;12.530;2023-03-04T07:51:26;100895.25;;;7.93;75.98
54948;BME280;41113;41.882;12.530;2023-03-04T07:53:56;100892.34;;;7.96;76.07
54948;BME280;41113;41.882;12.530;2023-03-04T07:56:24;100896.72;;;7.97;76.08
54948;BME280;41113;41.882;12.530;2023-03-04T07:58:58;100897.75;;;8.07;76.15
54948;BME280;41113;41.882;12.530;2023-03-04T08:01:29;100899.00;;;8.14;75.74
54948;BME280;41113;41.882;12.530;2023-03-04T08:04:08;100902.44;;;8.16;75.55
54948;BME280;41113;41.882;12.530;2023-03-04T08:06:34;100894.94;;;8.32;75.74
54948;BME280;41113;41.882;12.530;2023-03-04T08:09:05;100896.69;;;8.45;74.78
54948;BME280;41113;41.882;12.530;2023-03-04T08:11:34;100901.13;;;8.57;74.35
54948;BME280;41113;41.882;12.530;2023-03-04T08:13:59;100900.88;;;8.60;74.49
54948;BME280;41113;41.882;12.530;2023-03-04T08:16:25;100892.50;;;8.64;73.91
54948;BME280;41113;41.882;12.530;2023-03-04T08:18:53;100896.28;;;8.73;73.73
54948;BME280;41113;41.882;12.530;2023-03-04T08:21:21;100893.38;;;8.87;73.99
54948;BME280;41113;41.882;12.530;2023-03-04T08:23:48;100891.69;;;8.97;73.60
54948;BME280;41113;41.882;12.530;2023-03-04T08:26:26;100890.22;;;9.04;73.14
54948;BME280;41113;41.882;12.530;2023-03-04T08:29:00;100886.31;;;9.09;73.21
54948;BME280;41113;41.882;12.530;2023-03-04T08:31:26;100892.31;;;9.12;72.59
54948;BME280;41113;41.882;12.530;2023-03-04T08:33:51;100892.41;;;9.22;73.28
54948;BME280;41113;41.882;12.530;2023-03-04T08:36:17;100882.41;;;9.35;72.87
54948;BME280;41113;41.882;12.530;2023-03-04T08:38:43;100889.59;;;9.46;72.80
54948;BME280;41113;41.882;12.530;2023-03-04T08:41:10;100891.41;;;9.56;71.93
54948;BME280;41113;41.882;12.530;2023-03-04T08:43:35;100885.50;;;9.74;72.33
54948;BME280;41113;41.882;12.530;2023-03-04T08:46:01;100881.56;;;9.89;71.52
54948;BME280;41113;41.882;12.530;2023-03-04T08:48:27;100881.13;;;10.05;71.77
54948;BME280;41113;41.882;12.530;2023-03-04T08:50:55;100884.91;;;10.13;71.21
54948;BME280;41113;41.882;12.530;2023-03-04T08:53:20;100895.25;;;10.18;69.96
54948;BME280;41113;41.882;12.530;2023-03-04T08:55:46;100889.75;;;10.19;67.88
54948;BME280;41113;41.882;12.530;2023-03-04T08:58:22;100882.91;;;10.26;67.50
54948;BME280;41113;41.882;12.530;2023-03-04T09:00:48;100882.13;;;10.36;67.65
54948;BME280;41113;41.882;12.530;2023-03-04T09:03:16;100883.19;;;10.44;66.81
54948;BME280;41113;41.882;12.530;2023-03-04T09:05:44;100872.50;;;10.54;66.80
54948;BME280;41113;41.882;12.530;2023-03-04T09:08:10;100874.84;;;10.68;66.79
54948;BME280;41113;41.882;12.530;2023-03-04T09:10:35;100877.47;;;10.79;66.11
54948;BME280;41113;41.882;12.530;2023-03-04T09:13:01;100881.78;;;10.91;66.66
54948;BME280;41113;41.882;12.530;2023-03-04T09:15:30;100877.03;;;11.05;65.82
54948;BME280;41113;41.882;12.530;2023-03-04T09:18:02;100877.09;;;11.14;64.54
54948;BME280;41113;41.882;12.530;2023-03-04T09:20:28;100876.00;;;11.36;64.92
54948;BME280;41113;41.882;12.530;2023-03-04T09:22:54;100873.22;;;11.47;64.17
54948;BME280;41113;41.882;12.530;2023-03-04T09:25:20;100877.06;;;11.54;63.14
54948;BME280;41113;41.882;12.530;2023-03-04T09:27:49;100871.28;;;11.69;62.97
54948;BME280;41113;41.882;12.530;2023-03-04T09:30:14;100867.09;;;11.86;62.88
54948;BME280;41113;41.882;12.530;2023-03-04T09:32:40;100866.28;;;12.04;62.71
54948;BME280;41113;41.882;12.530;2023-03-04T09:35:06;100862.00;;;12.21;61.72
54948;BME280;41113;41.882;12.530;2023-03-04T09:37:31;100854.38;;;12.36;62.67
54948;BME280;41113;41.882;12.530;2023-03-04T09:39:57;100861.16;;;12.40;60.63
54948;BME280;41113;41.882;12.530;2023-03-04T09:42:29;100857.06;;;12.36;58.63
54948;BME280;41113;41.882;12.530;2023-03-04T09:44:59;100855.78;;;12.40;58.98
54948;BME280;41113;41.882;12.530;2023-03-04T09:47:25;100852.91;;;12.51;60.84
54948;BME280;41113;41.882;12.530;2023-03-04T09:49:59;100849.22;;;12.52;60.49
54948;BME280;41113;41.882;12.530;2023-03-04T09:52:57;100844.59;;;12.82;59.39
54948;BME280;41113;41.882;12.530;2023-03-04T09:55:38;100850.19;;;13.17;60.29
54948;BME280;41113;41.882;12.530;2023-03-04T10:03:44;100846.75;;;13.15;57.22
54948;BME280;41113;41.882;12.530;2023-03-04T10:06:15;100849.66;;;13.04;56.44
54948;BME280;41113;41.882;12.530;2023-03-04T10:09:20;100840.56;;;13.05;56.67
54948;BME280;41113;41.882;12.530;2023-03-04T10:12:02;100842.19;;;13.25;56.25
54948;BME280;41113;41.882;12.530;2023-03-04T10:14:30;100843.19;;;13.24;55.63
54948;BME280;41113;41.882;12.530;2023-03-04T10:17:21;100843.63;;;13.20;54.91
54948;BME280;41113;41.882;12.530;2023-03-04T10:20:14;100835.78;;;13.26;55.95
54948;BME280;41113;41.882;12.530;2023-03-04T10:22:45;100832.22;;;13.35;56.73
54948;BME280;41113;41.882;12.530;2023-03-04T10:27:46;100838.03;;;13.31;55.44
54948;BME280;41113;41.882;12.530;2023-03-04T10:33:19;100829.06;;;13.58;54.49
54948;BME280;41113;41.882;12.530;2023-03-04T10:35:50;100832.84;;;13.65;55.76
54948;BME280;41113;41.882;12.530;2023-03-04T10:38:20;100826.56;;;13.74;53.85
54948;BME280;41113;41.882;12.530;2023-03-04T10:40:46;100827.88;;;13.88;55.43
54948;BME280;41113;41.882;12.530;2023-03-04T10:43:18;100827.00;;;13.87;52.30
54948;BME280;41113;41.882;12.530;2023-03-04T10:45:44;100817.69;;;13.82;53.41
54948;BME280;41113;41.882;12.530;2023-03-04T10:48:20;100822.78;;;13.85;52.45
54948;BME280;41113;41.882;12.530;2023-03-04T10:50:46;100808.81;;;13.89;55.00
54948;BME280;41113;41.882;12.530;2023-03-04T10:53:32;100817.91;;;13.88;50.96
54948;BME280;41113;41.882;12.530;2023-03-04T10:57:23;100811.28;;;14.00;51.42
54948;BME280;41113;41.882;12.530;2023-03-04T11:06:18;100807.34;;;14.13;48.26
54948;BME280;41113;41.882;12.530;2023-03-04T11:08:52;100806.91;;;13.99;43.67
54948;BME280;41113;41.882;12.530;2023-03-04T11:11:30;100805.63;;;14.12;45.41
54948;BME280;41113;41.882;12.530;2023-03-04T11:14:34;100802.31;;;14.18;47.31
54948;BME280;41113;41.882;12.530;2023-03-04T11:17:26;100802.38;;;14.26;49.14
54948;BME280;41113;41.882;12.530;2023-03-04T11:20:27;100784.22;;;14.36;49.42
54948;BME280;41113;41.882;12.530;2023-03-04T11:22:50;100785.91;;;14.37;48.32
54948;BME280;41113;41.882;12.530;2023-03-04T11:25:24;100779.66;;;14.37;45.89
54948;BME280;41113;41.882;12.530;2023-03-04T11:28:23;100782.84;;;14.32;45.69
54948;BME280;41113;41.882;12.530;2023-03-04T11:31:07;100779.50;;;14.38;47.57
54948;BME280;41113;41.882;12.530;2023-03-04T11:55:04;100749.91;;;14.54;46.91
54948;BME280;41113;41.882;12.530;2023-03-04T13:35:50;100633.13;;;14.85;46.27
54948;BME280;41113;41.882;12.530;2023-03-04T13:38:36;100629.72;;;14.83;46.53
54948;BME280;41113;41.882;12.530;2023-03-04T13:44:01;100624.72;;;14.96;41.15
54948;BME280;41113;41.882;12.530;2023-03-04T13:46:38;100615.59;;;14.97;44.13
54948;BME280;41113;41.882;12.530;2023-03-04T14:34:43;100587.19;;;15.09;44.00
54948;BME280;41113;41.882;12.530;2023-03-04T14:42:41;100569.59;;;15.05;45.94
54948;BME280;41113;41.882;12.530;2023-03-04T14:45:15;100573.84;;;15.08;47.83
54948;BME280;41113;41.882;12.530;2023-03-04T14:47:45;100577.03;;;15.03;48.35
54948;BME280;41113;41.882;12.530;2023-03-04T14:50:29;100568.59;;;14.98;49.83
54948;BME280;41113;41.882;12.530;2023-03-04T14:53:23;100568.25;;;15.01;50.99
54948;BME280;41113;41.882;12.530;2023-03-04T14:56:08;100556.94;;;14.98;51.05
54948;BME280;41113;41.882;12.530;2023-03-04T14:58:35;100565.84;;;14.90;50.92
54948;BME280;41113;41.882;12.530;2023-03-04T15:01:14;100561.13;;;14.84;51.54
54948;BME280;41113;41.882;12.530;2023-03-04T15:03:41;100569.56;;;14.81;51.66
54948;BME280;41113;41.882;12.530;2023-03-04T15:06:20;100565.50;;;14.77;51.79
54948;BME280;41113;41.882;12.530;2023-03-04T15:08:57;100570.91;;;14.77;51.94
54948;BME280;41113;41.882;12.530;2023-03-04T15:11:47;100574.63;;;14.76;52.39
54948;BME280;41113;41.882;12.530;2023-03-04T15:27:10;100573.03;;;14.49;54.13
54948;BME280;41113;41.882;12.530;2023-03-04T15:30:13;100575.56;;;14.50;54.15
54948;BME280;41113;41.882;12.530;2023-03-04T15:32:47;100571.03;;;14.51;54.00
54948;BME280;41113;41.882;12.530;2023-03-04T15:35:17;100573.88;;;14.49;54.01
54948;BME280;41113;41.882;12.530;2023-03-04T15:37:50;100580.13;;;14.50;54.23
54948;BME280;41113;41.882;12.530;2023-03-04T15:43:15;100574.53;;;14.43;56.28
54948;BME280;41113;41.882;12.530;2023-03-04T15:45:45;100580.25;;;14.40;56.08
54948;BME280;41113;41.882;12.530;2023-03-04T15:48:17;100585.13;;;14.37;56.75
54948;BME280;41113;41.882;12.530;2023-03-04T15:51:00;100581.25;;;14.31;59.57
54948;BME280;41113;41.882;12.530;2023-03-04T15:53:43;100576.78;;;14.22;59.89
54948;BME280;41113;41.882;12.530;2023-03-04T15:56:21;100588.56;;;14.13;60.64
54948;BME280;41113;41.882;12.530;2023-03-04T15:59:05;100577.75;;;14.05;61.25
54948;BME280;41113;41.882;12.530;2023-03-04T16:01:38;100577.06;;;14.02;60.49
54948;BME280;41113;41.882;12.530;2023-03-04T16:04:03;100580.22;;;13.98;60.32
54948;BME280;41113;41.882;12.530;2023-03-04T16:06:30;100580.38;;;13.96;60.21
54948;BME280;41113;41.882;12.530;2023-03-04T16:08:57;100583.72;;;13.90;60.79
54948;BME280;41113;41.882;12.530;2023-03-04T16:11:28;100574.94;;;13.88;61.08
54948;BME280;41113;41.882;12.530;2023-03-04T16:13:54;100583.34;;;13.85;61.17
54948;BME280;41113;41.882;12.530;2023-03-04T16:16:20;100575.59;;;13.82;61.80
54948;BME280;41113;41.882;12.530;2023-03-04T16:18:45;100579.59;;;13.78;62.13
54948;BME280;41113;41.882;12.530;2023-03-04T16:21:17;100581.63;;;13.76;62.04
54948;BME280;41113;41.882;12.530;2023-03-04T16:23:45;100583.31;;;13.77;62.07
54948;BME280;41113;41.882;12.530;2023-03-04T16:26:13;100579.25;;;13.73;63.86
54948;BME280;41113;41.882;12.530;2023-03-04T16:28:39;100583.44;;;13.67;63.72